KEGEKHDN

Guest
Details From KEGE - EAGLE CO RGNL
To KHDN - YAMPA VALLEY
Flight Number -
Tags generated
Created
Modified
Stats Distance 53 nm / 98 km
Max Altitude 1,100 ft / 335 m
Waypoints 3
Social Downloads 1
Likes 0
Share VATSIM

Download

Looking for another format? Having issues loading an existing format? Contact us
Advertisement - Login to hide

Notes

Basic altitude profile: - Ascent Rate: 2500ft/min - Ascent Speed: 250kts - Cruise Altitude: 35000ft - Cruise Speed: 420kts - Descent Rate: 1500ft/min - Descent Speed: 250kts Options: - Use NATs: no - Use PACOTS: no - Use low airways: yes - Use high airways: no

Route

KEGE EGFAX KHDN

ID Type Via Altitude Latitude Longitude Leg Dist Tot Dist Heading (true) Name
O KEGE APT - 0 ft / 0 m 39.64257˚ -106.91770˚ - 0 nm - EAGLE CO RGNL
EGFAX FIX - 1,100 ft / 335 m 40.41776˚ -107.13245˚ 47 nm 47 nm 348° / 348° -
O KHDN APT - 0 ft / 0 m 40.48118˚ -107.21766˚ 5 nm 53 nm 314° / 314° YAMPA VALLEY

Altitude Profile

Advertisement - Login to hide

KEGE

Details ICAO KEGE (EGE)
Name EAGLE CO RGNL
Region United States
Timezone America/Denver (UTC-7.0)
Stats Elevation 6,540 ft / 1,993 m (AMSL)
Location 39.642567° -106.917696°
Runways 1
Magnetic Variation 9.165° E

METAR

KEGE 170556Z 00000KT 10SM CLR M08/M12 A2991 RMK AO2 SLP200 T10781117 11033 21083 410221139 53017

Decode

TAF

KEGE 170537Z 1706/1806 VRB03KT P6SM FEW110 AMD LTD TO CLD VIS AND WIND TIL 171400

Decode

Departure Runways

ID Width Length Bearing (true) Bearing (mag) Surface Threshold Offset Overrun Length
07 150 ft / 46 m 7,981 ft / 2,433 m 81.90° 72.74° Asphalt 0 ft / 0 m 0 ft / 0 m
25 150 ft / 46 m 7,981 ft / 2,433 m 261.92° 252.76° Asphalt 0 ft / 0 m 0 ft / 0 m

KHDN

Details ICAO KHDN (HDN)
Name YAMPA VALLEY
Region United States
Timezone America/Denver (UTC-7.0)
Stats Elevation 6,602 ft / 2,012 m (AMSL)
Location 40.481179° -107.217663°
Runways 1
Magnetic Variation 9.399° E

METAR

KHDN 170556Z AUTO 00000KT 10SM CLR M07/M11 A2989 RMK AO2 SLP159 T10721106 10000 21072 400111072 53018 FZRANO

Decode

TAF

Not found

Destination Runways

ID Width Length Bearing (true) Bearing (mag) Surface Threshold Offset Overrun Length
10 151 ft / 46 m 9,980 ft / 3,042 m 113.80° 104.40° Asphalt 509 ft / 155 m 200 ft / 61 m
28 151 ft / 46 m 9,980 ft / 3,042 m 293.82° 284.42° Asphalt 0 ft / 0 m 0 ft / 0 m

Approach Navaids

Runway Type Ident Frequency Range Bearing (true) Bearing (mag) Slope Elevation
10 Localiser IHDN 109.90 MHz 18 nm / 33 km 113.83° 104.43° - 6,602 ft / 2,012 m (AMSL)
10 Glidescope IHDN 109.90 MHz 10 nm / 19 km 113.81° 104.41° 3.00° 6,583 ft / 2,006 m (AMSL)
10 DME IHDN 109.90 MHz 18 nm / 33 km - - - 6,602 ft / 2,012 m (AMSL)